createdAt,value
2019-02-22T00:01:47.397Z,80.82
2019-02-22T00:04:21.458Z,80.92
2019-02-22T00:06:53.185Z,81.06
2019-02-22T00:09:25.887Z,81.09
2019-02-22T00:11:59.801Z,81.08
2019-02-22T00:14:31.624Z,80.83
2019-02-22T00:17:04.666Z,80.59
2019-02-22T00:19:36.316Z,80.44
2019-02-22T00:22:10.956Z,80.30
2019-02-22T00:24:42.791Z,80.32
2019-02-22T00:27:14.491Z,80.26
2019-02-22T00:29:46.057Z,80.25
2019-02-22T00:32:17.917Z,80.11
2019-02-22T00:34:49.412Z,80.00
2019-02-22T00:37:20.966Z,79.88
2019-02-22T00:39:52.518Z,79.57
2019-02-22T00:42:24.098Z,79.50
2019-02-22T00:44:56.765Z,79.55
2019-02-22T00:47:28.257Z,79.38
2019-02-22T00:49:59.837Z,79.37
2019-02-22T00:52:34.096Z,79.23
2019-02-22T00:55:05.723Z,78.30
2019-02-22T00:57:38.253Z,78.18
2019-02-22T01:00:09.951Z,78.23
2019-02-22T01:02:41.469Z,78.31
2019-02-22T01:05:13.168Z,78.27
2019-02-22T01:07:44.872Z,78.39
2019-02-22T01:10:16.676Z,78.59
2019-02-22T01:12:48.104Z,77.37
2019-02-22T01:15:19.701Z,76.87
2019-02-22T01:17:51.331Z,77.81
2019-02-22T01:20:22.895Z,77.02
2019-02-22T01:22:54.417Z,77.17
2019-02-22T01:25:25.845Z,77.46
2019-02-22T01:27:57.397Z,77.84
2019-02-22T01:30:28.942Z,77.90
2019-02-22T01:33:00.574Z,78.43
2019-02-22T01:35:32.254Z,77.74
2019-02-22T01:38:03.891Z,78.08
2019-02-22T01:40:43.841Z,77.93
2019-02-22T01:43:09.683Z,77.88
2019-02-22T01:45:42.055Z,77.66
2019-02-22T01:48:13.556Z,77.85
2019-02-22T01:50:45.031Z,77.85
2019-02-22T01:53:16.465Z,76.92
2019-02-22T01:55:47.893Z,76.90
2019-02-22T01:58:19.310Z,77.45
2019-02-22T02:00:50.854Z,77.99
2019-02-22T02:03:22.314Z,77.57
2019-02-22T02:05:53.895Z,77.42
2019-02-22T02:08:25.455Z,77.47
2019-02-22T02:10:56.908Z,77.78
2019-02-22T02:13:32.371Z,77.93
2019-02-22T02:16:03.928Z,77.85
2019-02-22T02:18:35.641Z,77.58
2019-02-22T02:21:07.108Z,78.19
2019-02-22T02:23:38.722Z,77.88
2019-02-22T02:26:10.266Z,78.45
2019-02-22T02:28:41.812Z,77.70
2019-02-22T02:31:13.431Z,77.62
2019-02-22T02:33:45.017Z,77.61
2019-02-22T02:36:16.653Z,78.00
2019-02-22T02:38:48.155Z,78.05
2019-02-22T02:41:19.627Z,77.91
2019-02-22T02:43:51.044Z,78.46
2019-02-22T02:46:22.523Z,78.17
2019-02-22T02:48:54.227Z,78.29
2019-02-22T02:51:25.719Z,77.70
2019-02-22T02:53:57.207Z,77.23
2019-02-22T02:56:28.713Z,76.38
2019-02-22T02:59:00.264Z,76.94
2019-02-22T03:01:31.727Z,77.28
2019-02-22T03:04:03.092Z,77.03
2019-02-22T03:07:02.643Z,76.39
2019-02-22T03:09:34.207Z,75.13
2019-02-22T03:12:05.728Z,76.10
2019-02-22T03:14:37.254Z,75.51
2019-02-22T03:17:08.756Z,75.29
2019-02-22T03:19:41.818Z,74.69
2019-02-22T03:22:13.269Z,74.78
2019-02-22T03:24:44.810Z,73.99
2019-02-22T03:27:16.278Z,74.47
2019-02-22T03:29:47.777Z,74.23
2019-02-22T03:32:19.410Z,74.06
2019-02-22T03:34:50.894Z,74.25
2019-02-22T03:37:22.573Z,74.67
2019-02-22T03:39:54.166Z,75.20
2019-02-22T03:42:25.607Z,75.21
2019-02-22T03:44:57.090Z,75.42
2019-02-22T03:47:28.520Z,75.98
2019-02-22T03:49:59.949Z,76.00
2019-02-22T03:52:35.951Z,75.59
2019-02-22T03:55:10.773Z,75.74
2019-02-22T03:57:42.164Z,75.86
2019-02-22T04:00:15.059Z,75.63
2019-02-22T04:02:46.622Z,76.07
2019-02-22T04:05:18.115Z,76.10
2019-02-22T04:07:49.637Z,76.07
2019-02-22T04:10:21.053Z,76.23
2019-02-22T04:12:52.492Z,76.37
2019-02-22T04:15:23.995Z,76.22
2019-02-22T04:17:56.793Z,76.33
2019-02-22T04:20:34.214Z,75.90
2019-02-22T04:23:05.735Z,76.13
2019-02-22T04:25:37.276Z,74.76
2019-02-22T04:28:08.764Z,74.10
2019-02-22T04:30:40.469Z,73.65
2019-02-22T04:33:12.002Z,73.43
2019-02-22T04:35:51.829Z,72.12
2019-02-22T04:38:23.248Z,72.23
2019-02-22T04:40:57.574Z,71.44
2019-02-22T04:43:29.001Z,71.29
2019-02-22T04:46:00.633Z,71.28
2019-02-22T04:48:32.158Z,71.42
2019-02-22T04:51:03.843Z,71.88
2019-02-22T04:53:37.099Z,71.20
2019-02-22T04:56:11.466Z,71.11
2019-02-22T04:58:43.951Z,70.81
2019-02-22T05:01:17.070Z,70.76
2019-02-22T05:03:48.894Z,71.15
2019-02-22T05:06:20.500Z,71.14
2019-02-22T05:08:52.004Z,71.45
2019-02-22T05:11:23.571Z,70.16
2019-02-22T05:13:56.601Z,69.74
2019-02-22T05:16:28.299Z,69.38
2019-02-22T05:18:59.853Z,69.78
2019-02-22T05:21:31.233Z,69.07
2019-02-22T05:24:02.718Z,69.14
2019-02-22T05:26:34.253Z,68.55
2019-02-22T05:29:05.675Z,68.18
2019-02-22T05:31:46.542Z,68.77
2019-02-22T05:34:18.236Z,68.69
2019-02-22T05:36:51.119Z,67.61
2019-02-22T05:39:22.662Z,69.04
2019-02-22T05:41:54.100Z,67.77
2019-02-22T05:44:25.475Z,67.53
2019-02-22T05:47:00.800Z,67.58
2019-02-22T05:49:32.295Z,66.96
2019-02-22T05:52:04.836Z,67.13
2019-02-22T05:54:36.361Z,67.16
2019-02-22T05:57:07.841Z,66.53
2019-02-22T06:00:17.477Z,66.90
2019-02-22T06:02:52.466Z,67.06
2019-02-22T06:05:23.950Z,67.02
2019-02-22T06:07:55.427Z,69.87
2019-02-22T06:10:26.861Z,67.68
2019-02-22T06:12:58.398Z,65.35
2019-02-22T06:15:31.482Z,64.54
2019-02-22T06:18:03.265Z,64.09
2019-02-22T06:20:34.780Z,63.61
2019-02-22T06:23:06.372Z,64.38
2019-02-22T06:25:38.002Z,63.36
2019-02-22T06:28:09.425Z,64.58
2019-02-22T06:30:40.964Z,62.89
2019-02-22T06:33:15.336Z,62.65
2019-02-22T06:35:46.961Z,62.57
2019-02-22T06:38:18.490Z,63.08
2019-02-22T06:40:50.196Z,63.30
2019-02-22T06:43:21.660Z,63.62
2019-02-22T06:45:53.429Z,63.77
2019-02-22T06:48:24.947Z,64.02
2019-02-22T06:50:56.540Z,64.87
2019-02-22T06:53:28.035Z,65.16
2019-02-22T06:55:59.601Z,65.25
2019-02-22T06:58:31.099Z,63.88
2019-02-22T07:01:02.566Z,64.65
2019-02-22T07:03:34.266Z,64.37
2019-02-22T07:06:05.974Z,64.18
2019-02-22T07:08:37.478Z,64.19
2019-02-22T07:11:27.651Z,63.24
2019-02-22T07:13:59.281Z,63.00
2019-02-22T07:16:30.949Z,63.38
2019-02-22T07:19:03.853Z,62.69
2019-02-22T07:21:49.252Z,62.20
2019-02-22T07:24:08.960Z,62.93
2019-02-22T07:26:40.453Z,62.26
2019-02-22T07:29:11.929Z,62.68
2019-02-22T07:31:43.586Z,62.41
2019-02-22T07:34:15.133Z,61.95
2019-02-22T07:36:46.696Z,62.22
2019-02-22T07:39:27.340Z,61.68
2019-02-22T07:41:52.645Z,62.20
2019-02-22T07:44:25.302Z,61.67
2019-02-22T07:46:57.073Z,61.64
2019-02-22T07:49:28.890Z,60.87
2019-02-22T07:52:01.489Z,61.17
2019-02-22T07:54:33.189Z,60.68
2019-02-22T07:57:04.690Z,59.70
2019-02-22T07:59:36.418Z,60.15
2019-02-22T08:02:08.021Z,59.37
2019-02-22T08:04:45.314Z,58.30
2019-02-22T08:07:16.989Z,58.17
2019-02-22T08:09:48.653Z,57.42
2019-02-22T08:12:20.335Z,57.11
2019-02-22T08:14:51.955Z,56.77
2019-02-22T08:17:23.622Z,56.89
2019-02-22T08:19:56.157Z,57.22
2019-02-22T08:22:27.752Z,57.32
2019-02-22T08:24:59.462Z,56.60
2019-02-22T08:27:31.316Z,57.13
2019-02-22T08:30:04.124Z,56.81
2019-02-22T08:32:36.827Z,55.76
2019-02-22T08:35:11.718Z,54.49
2019-02-22T08:37:43.313Z,54.30
2019-02-22T08:40:18.881Z,53.41
2019-02-22T08:42:50.734Z,52.57
2019-02-22T08:45:23.381Z,52.21
2019-02-22T08:48:00.128Z,52.21
2019-02-22T08:50:31.650Z,51.51
2019-02-22T08:53:03.345Z,49.75
2019-02-22T08:55:36.721Z,48.40
2019-02-22T08:58:09.356Z,47.96
2019-02-22T09:00:43.446Z,47.11
2019-02-22T09:03:16.436Z,46.42
2019-02-22T09:05:48.157Z,46.92
2019-02-22T09:08:19.717Z,45.00
2019-02-22T09:11:00.174Z,44.23
2019-02-22T09:13:24.862Z,44.00
2019-02-22T09:16:05.459Z,43.56
2019-02-22T09:18:40.275Z,41.33
2019-02-22T09:21:16.539Z,41.53
2019-02-22T09:23:50.657Z,41.44
2019-02-22T09:26:25.556Z,42.36
2019-02-22T09:28:57.642Z,41.19
2019-02-22T09:31:29.152Z,42.40
2019-02-22T09:34:00.615Z,41.96
2019-02-22T09:36:34.939Z,41.59
2019-02-22T09:39:08.291Z,43.12
2019-02-22T09:41:39.759Z,41.79
2019-02-22T09:44:11.248Z,39.62
2019-02-22T09:46:42.650Z,37.91
2019-02-22T09:49:14.129Z,37.75
2019-02-22T09:51:45.765Z,37.03
2019-02-22T09:54:17.202Z,37.29
2019-02-22T09:56:50.806Z,37.67
2019-02-22T09:59:21.997Z,36.95
2019-02-22T10:01:53.513Z,38.20
2019-02-22T10:04:24.945Z,36.71
2019-02-22T10:06:56.503Z,35.26
2019-02-22T10:09:28.036Z,34.62
2019-02-22T10:11:59.534Z,35.63
2019-02-22T10:14:32.107Z,35.19
2019-02-22T10:17:03.624Z,34.42
2019-02-22T10:19:35.118Z,34.62
2019-02-22T10:22:06.945Z,33.03
2019-02-22T10:24:38.641Z,32.82
2019-02-22T10:27:12.047Z,31.96
2019-02-22T10:29:43.452Z,32.73
2019-02-22T10:32:16.014Z,32.97
2019-02-22T10:34:47.589Z,32.68
2019-02-22T10:37:19.047Z,32.53
2019-02-22T10:39:50.776Z,31.55
2019-02-22T10:42:22.349Z,31.29
2019-02-22T10:44:53.774Z,30.56
2019-02-22T10:47:25.770Z,31.11
2019-02-22T10:49:57.262Z,30.93
2019-02-22T10:52:28.682Z,32.18
2019-02-22T10:55:00.413Z,32.35
2019-02-22T10:57:31.962Z,32.35
2019-02-22T11:00:03.617Z,32.63
2019-02-22T11:02:35.353Z,31.71
2019-02-22T11:05:06.854Z,30.79
2019-02-22T11:07:38.820Z,31.72
2019-02-22T11:10:11.122Z,32.37
2019-02-22T11:12:43.805Z,31.11
2019-02-22T11:15:15.730Z,31.53
2019-02-22T11:17:47.158Z,30.91
2019-02-22T11:20:18.698Z,31.26
2019-02-22T11:22:50.277Z,31.46
2019-02-22T11:25:21.764Z,30.66
2019-02-22T11:27:54.373Z,30.46
2019-02-22T11:30:25.813Z,30.59
2019-02-22T11:32:57.227Z,31.04
2019-02-22T11:35:28.741Z,31.14
2019-02-22T11:38:00.188Z,31.88
2019-02-22T11:40:33.577Z,31.70
2019-02-22T11:43:04.969Z,32.60
2019-02-22T11:45:36.596Z,32.63
2019-02-22T11:48:09.387Z,31.61
2019-02-22T11:50:48.352Z,31.56
2019-02-22T11:53:20.150Z,31.04
2019-02-22T11:55:51.681Z,30.56
2019-02-22T11:58:23.189Z,30.82
2019-02-22T12:00:54.716Z,29.54
2019-02-22T12:03:26.248Z,30.88
2019-02-22T12:05:57.886Z,31.87
2019-02-22T12:08:29.401Z,31.85
2019-02-22T12:11:00.789Z,30.55
2019-02-22T12:13:32.563Z,29.90
2019-02-22T12:16:03.970Z,31.80
2019-02-22T12:18:36.802Z,33.67
2019-02-22T12:21:08.255Z,34.48
2019-02-22T12:23:39.910Z,34.33
2019-02-22T12:26:11.476Z,34.72
2019-02-22T12:28:42.903Z,33.33
2019-02-22T12:31:14.465Z,34.22
2019-02-22T12:33:45.866Z,33.97
2019-02-22T12:36:21.488Z,33.25
2019-02-22T12:38:53.380Z,33.11
2019-02-22T12:41:24.875Z,33.54
2019-02-22T12:43:56.458Z,32.19
2019-02-22T12:46:27.949Z,32.97
2019-02-22T12:48:59.470Z,33.04
2019-02-22T12:51:30.935Z,32.90
2019-02-22T12:54:02.326Z,32.79
2019-02-22T12:59:06.997Z,30.56
2019-02-22T13:01:38.564Z,30.99
2019-02-22T13:04:10.038Z,32.71
2019-02-22T13:06:41.589Z,33.26
2019-02-22T13:09:13.080Z,31.85
2019-02-22T13:11:44.598Z,33.25
2019-02-22T13:14:16.051Z,32.51
2019-02-22T13:16:47.545Z,32.22
2019-02-22T13:19:18.985Z,32.70
2019-02-22T13:21:50.511Z,31.76
2019-02-22T13:24:23.074Z,31.46
2019-02-22T13:26:54.541Z,31.46
2019-02-22T13:29:26.175Z,31.46
2019-02-22T13:31:57.686Z,30.81
2019-02-22T13:34:29.083Z,32.05
2019-02-22T13:37:00.725Z,33.84
2019-02-22T13:39:32.098Z,35.74
2019-02-22T13:42:03.494Z,35.35
2019-02-22T13:44:35.043Z,35.39
2019-02-22T13:47:06.564Z,36.19
2019-02-22T13:49:38.488Z,35.42
2019-02-22T13:52:10.479Z,34.77
2019-02-22T13:54:44.272Z,34.13
2019-02-22T13:57:15.219Z,33.78
2019-02-22T13:59:48.135Z,32.71
2019-02-22T14:02:19.689Z,32.85
2019-02-22T14:04:51.221Z,33.73
2019-02-22T14:07:22.887Z,34.14
2019-02-22T14:09:54.521Z,33.17
2019-02-22T14:12:26.006Z,34.32
2019-02-22T14:14:58.504Z,35.12
2019-02-22T14:17:30.079Z,36.29
2019-02-22T14:20:01.786Z,35.98
2019-02-22T14:22:34.792Z,35.28
2019-02-22T14:25:06.614Z,35.90
2019-02-22T14:27:39.117Z,36.76
2019-02-22T14:30:11.654Z,36.53
2019-02-22T14:32:43.166Z,36.58
2019-02-22T14:35:14.694Z,36.12
2019-02-22T14:37:46.810Z,35.39
2019-02-22T14:40:18.276Z,34.21
2019-02-22T14:42:50.788Z,33.14
2019-02-22T14:45:23.732Z,31.25
2019-02-22T14:47:55.347Z,30.69
2019-02-22T14:50:26.860Z,31.46
2019-02-22T14:52:58.488Z,32.15
2019-02-22T14:55:30.075Z,33.07
2019-02-22T14:58:01.634Z,35.17
2019-02-22T15:00:34.362Z,36.29
2019-02-22T15:03:05.958Z,36.24
2019-02-22T15:05:37.340Z,36.64
2019-02-22T15:08:08.915Z,36.53
2019-02-22T15:10:40.313Z,37.33
2019-02-22T15:13:12.696Z,37.79
2019-02-22T15:16:01.038Z,37.84
2019-02-22T15:18:31.824Z,37.46
2019-02-22T15:21:03.320Z,36.85
2019-02-22T15:23:34.847Z,36.54
2019-02-22T15:26:06.532Z,35.74
2019-02-22T15:28:38.113Z,35.38
2019-02-22T15:31:09.591Z,35.80
2019-02-22T15:33:41.103Z,35.69
2019-02-22T15:36:12.625Z,36.36
2019-02-22T15:38:44.140Z,36.15
2019-02-22T15:41:15.660Z,36.66
2019-02-22T15:43:47.148Z,36.84
2019-02-22T15:46:19.846Z,37.16
2019-02-22T15:48:51.407Z,37.49
2019-02-22T15:51:23.076Z,37.52
2019-02-22T15:53:54.592Z,37.60
2019-02-22T15:56:25.991Z,37.50
2019-02-22T15:58:57.568Z,35.91
2019-02-22T16:01:29.022Z,36.68
2019-02-22T16:04:22.932Z,36.77
2019-02-22T16:06:54.639Z,37.28
2019-02-22T16:09:26.140Z,36.93
2019-02-22T16:11:58.087Z,37.72
2019-02-22T16:14:29.836Z,37.54
2019-02-22T16:17:01.422Z,37.86
2019-02-22T16:19:34.416Z,38.33
2019-02-22T16:22:07.142Z,38.64
2019-02-22T16:24:38.754Z,38.37
2019-02-22T16:27:10.348Z,38.83
2019-02-22T16:29:41.958Z,39.20
2019-02-22T16:32:13.679Z,39.09
2019-02-22T16:34:46.769Z,39.51
2019-02-22T16:37:18.770Z,39.80
2019-02-22T16:39:52.410Z,40.22
2019-02-22T16:42:23.840Z,40.60
2019-02-22T16:44:55.396Z,40.55
2019-02-22T16:47:26.985Z,40.98
2019-02-22T16:49:58.676Z,41.69
2019-02-22T16:52:30.553Z,42.04
2019-02-22T16:55:02.373Z,41.97
2019-02-22T16:57:34.325Z,42.31
2019-02-22T17:00:06.793Z,42.31
2019-02-22T17:02:40.334Z,42.54
2019-02-22T17:05:13.793Z,42.80
2019-02-22T17:07:45.581Z,42.91
2019-02-22T17:10:17.523Z,42.71
2019-02-22T17:12:49.233Z,42.85
2019-02-22T17:15:21.138Z,42.89
2019-02-22T17:17:52.793Z,43.14
2019-02-22T17:20:24.420Z,43.22
2019-02-22T17:22:56.047Z,43.47
2019-02-22T17:25:27.751Z,43.68
2019-02-22T17:27:59.455Z,43.65
2019-02-22T17:30:31.165Z,44.02
2019-02-22T17:33:02.797Z,43.88
2019-02-22T17:35:34.781Z,43.70
2019-02-22T17:38:06.306Z,44.02
2019-02-22T17:40:38.405Z,44.43
2019-02-22T17:43:11.159Z,44.41
2019-02-22T17:45:42.978Z,44.73
2019-02-22T17:48:16.040Z,44.94
2019-02-22T17:50:48.149Z,45.32
2019-02-22T17:53:20.391Z,45.07
2019-02-22T17:55:53.321Z,44.94
2019-02-22T17:58:25.036Z,45.23
2019-02-22T18:00:56.613Z,45.69
2019-02-22T18:03:29.646Z,45.81
2019-02-22T18:06:01.196Z,45.94
2019-02-22T18:08:32.817Z,45.91
2019-02-22T18:11:05.914Z,45.87
2019-02-22T18:13:37.630Z,46.05
2019-02-22T18:16:10.013Z,45.95
2019-02-22T18:18:41.590Z,45.74
2019-02-22T18:21:13.364Z,45.99
2019-02-22T18:23:45.107Z,46.35
2019-02-22T18:26:17.122Z,46.62
2019-02-22T18:28:48.725Z,46.88
2019-02-22T18:31:20.282Z,46.63
2019-02-22T18:33:52.137Z,46.57
2019-02-22T18:36:23.620Z,46.81
2019-02-22T18:38:55.434Z,46.69
2019-02-22T18:41:27.076Z,46.83
2019-02-22T18:43:59.012Z,46.82
2019-02-22T18:46:30.584Z,46.63
2019-02-22T18:49:02.338Z,46.65
2019-02-22T18:51:34.210Z,46.66
2019-02-22T18:54:05.767Z,46.72
2019-02-22T18:56:37.522Z,46.61
2019-02-22T18:59:09.102Z,46.65
2019-02-22T19:01:40.710Z,46.86
2019-02-22T19:04:12.198Z,47.18
2019-02-22T19:06:43.771Z,47.26
2019-02-22T19:09:15.296Z,46.99
2019-02-22T19:11:46.884Z,47.58
2019-02-22T19:14:18.639Z,47.58
2019-02-22T19:16:50.346Z,47.09
2019-02-22T19:19:21.997Z,47.55
2019-02-22T19:21:53.534Z,47.71
2019-02-22T19:24:25.049Z,47.70
2019-02-22T19:26:56.625Z,47.69
2019-02-22T19:29:28.168Z,47.99
2019-02-22T19:31:59.787Z,48.21
2019-02-22T19:34:31.221Z,48.09
2019-02-22T19:37:02.845Z,48.32
2019-02-22T19:39:34.679Z,48.24
2019-02-22T19:42:06.428Z,48.54
2019-02-22T19:44:38.054Z,48.64
2019-02-22T19:47:09.572Z,48.73
2019-02-22T19:49:42.268Z,48.59
2019-02-22T19:52:13.837Z,49.05
2019-02-22T19:54:45.273Z,49.10
2019-02-22T19:57:16.900Z,49.17
2019-02-22T20:00:09.527Z,49.28
2019-02-22T20:02:41.187Z,49.21
2019-02-22T20:05:12.736Z,49.69
2019-02-22T20:07:46.014Z,50.18
2019-02-22T20:10:18.531Z,50.15
2019-02-22T20:12:50.356Z,50.41
2019-02-22T20:15:22.049Z,50.56
2019-02-22T20:17:54.984Z,50.77
2019-02-22T20:20:26.907Z,50.82
2019-02-22T20:22:58.527Z,50.90
2019-02-22T20:25:30.063Z,51.13
2019-02-22T20:28:01.595Z,51.22
2019-02-22T20:30:33.068Z,51.22
2019-02-22T20:33:04.706Z,51.43
2019-02-22T20:35:36.170Z,51.61
2019-02-22T20:38:07.784Z,51.90
2019-02-22T20:40:39.473Z,52.63
2019-02-22T20:43:11.099Z,52.58
2019-02-22T20:45:42.667Z,53.00
2019-02-22T20:48:14.138Z,52.66
2019-02-22T20:50:45.571Z,52.79
2019-02-22T20:53:17.168Z,52.91
2019-02-22T20:55:48.662Z,53.22
2019-02-22T20:58:20.070Z,53.42
2019-02-22T21:00:51.580Z,53.77
2019-02-22T21:03:26.541Z,54.35
2019-02-22T21:05:59.491Z,54.21
2019-02-22T21:08:31.138Z,54.70
2019-02-22T21:11:02.745Z,55.39
2019-02-22T21:13:34.205Z,54.91
2019-02-22T21:16:05.679Z,55.35
2019-02-22T21:18:37.088Z,54.96
2019-02-22T21:21:08.638Z,55.48
2019-02-22T21:23:40.091Z,56.32
2019-02-22T21:26:11.598Z,57.35
2019-02-22T21:28:43.141Z,56.83
2019-02-22T21:31:14.648Z,57.14
2019-02-22T21:33:46.169Z,57.65
2019-02-22T21:36:18.601Z,57.52
2019-02-22T21:38:50.610Z,57.49
2019-02-22T21:41:25.817Z,57.64
2019-02-22T21:43:57.953Z,57.21
2019-02-22T22:11:24.299Z,57.47
2019-02-22T22:13:58.576Z,52.17
2019-02-22T22:16:33.055Z,50.99
2019-02-22T22:26:17.822Z,24.58
2019-02-22T22:28:50.807Z,28.26
2019-02-22T22:31:23.769Z,33.79
2019-02-22T22:33:58.178Z,38.51
2019-02-22T22:36:31.077Z,41.99
2019-02-22T22:39:04.626Z,44.60
2019-02-22T22:41:38.403Z,46.81
2019-02-22T22:44:17.009Z,48.20
2019-02-22T22:46:50.004Z,49.34
2019-02-22T22:49:22.983Z,50.47
2019-02-22T22:51:55.775Z,51.39
2019-02-22T22:54:28.627Z,51.94
2019-02-22T22:57:01.499Z,53.55
2019-02-22T22:59:34.292Z,53.98
2019-02-22T23:02:07.549Z,54.54
2019-02-22T23:04:40.707Z,54.94
2019-02-22T23:07:14.703Z,55.37
2019-02-22T23:09:47.504Z,55.81
2019-02-22T23:12:21.861Z,56.30
2019-02-22T23:14:55.156Z,56.85
2019-02-22T23:17:28.303Z,56.90
2019-02-22T23:20:01.698Z,56.81
2019-02-22T23:22:35.846Z,56.34
2019-02-22T23:25:09.380Z,56.30
2019-02-22T23:27:42.925Z,56.43
2019-02-22T23:30:15.946Z,56.64
2019-02-22T23:32:49.244Z,56.43
2019-02-22T23:35:23.282Z,55.96
2019-02-22T23:37:56.808Z,55.77
2019-02-22T23:40:30.258Z,55.53
2019-02-22T23:43:05.452Z,55.88
2019-02-22T23:45:38.730Z,56.24
2019-02-22T23:48:13.714Z,56.65
2019-02-22T23:50:46.491Z,57.09
2019-02-22T23:53:19.443Z,57.24
2019-02-22T23:55:53.269Z,56.80
2019-02-22T23:58:26.065Z,57.21
